Time;durP1;ratioP1;P1;durP2;ratioP2;P2;SDS_P1;SDS_P2;PMS_P1;PMS_P2;Temp;Humidity;BMP_temperature;BMP_pressure;BME280_temperature;BME280_humidity;BME280_pressure;Samples;Min_cycle;Max_cycle;Signal;HPM_P1;HPM_P2
2022/06/02 00:02:04;;;;;;;4.18;3.03;;;11.30;84.00;;;;;;5051338;28;20031;-62
2022/06/02 00:05:03;;;;;;;3.72;3.03;;;11.30;84.30;;;;;;5055317;28;20070;-62
2022/06/02 00:07:47;;;;;;;3.28;2.72;;;11.20;84.30;;;;;;5052410;28;20017;-62
2022/06/02 00:10:41;;;;;;;3.72;3.30;;;11.20;84.50;;;;;;5058119;28;20024;-62
2022/06/02 00:13:37;;;;;;;4.40;3.90;;;11.20;84.60;;;;;;5044949;28;20025;-62
2022/06/02 00:16:24;;;;;;;4.45;3.83;;;11.20;84.60;;;;;;5044180;28;20503;-62
2022/06/02 00:18:54;;;;;;;4.55;4.03;;;11.10;84.90;;;;;;5044223;28;20033;-62
2022/06/02 00:21:26;;;;;;;4.20;3.80;;;11.10;85.10;;;;;;5053700;28;20029;-62
2022/06/02 00:24:27;;;;;;;3.50;3.00;;;11.10;85.30;;;;;;5056750;28;20053;-62
2022/06/02 00:27:16;;;;;;;3.05;2.50;;;10.90;85.50;;;;;;5041434;28;20017;-62
2022/06/02 00:29:49;;;;;;;4.05;3.50;;;10.80;86.10;;;;;;5041042;28;20026;-62
2022/06/02 00:32:22;;;;;;;4.55;3.30;;;10.70;86.60;;;;;;5041209;28;20117;-62
2022/06/02 00:35:14;;;;;;;4.60;3.60;;;10.60;87.00;;;;;;5040590;28;20140;-62
2022/06/02 00:37:50;;;;;;;4.45;3.80;;;10.60;87.30;;;;;;5041142;28;20036;-62
2022/06/02 00:40:17;;;;;;;4.50;3.50;;;10.60;87.50;;;;;;5053543;28;20138;-62
2022/06/02 00:43:18;;;;;;;4.60;3.92;;;10.50;87.60;;;;;;5034432;28;20028;-62
2022/06/02 00:45:46;;;;;;;4.88;3.60;;;10.50;87.50;;;;;;5045313;28;20025;-62
2022/06/02 00:48:41;;;;;;;4.45;3.70;;;10.50;87.90;;;;;;5047918;28;20033;-62
2022/06/02 00:51:13;;;;;;;4.30;3.90;;;10.50;87.90;;;;;;5047540;28;20029;-62
2022/06/02 00:59:49;;;;;;;4.38;3.97;;;10.30;88.50;;;;;;5045387;28;20499;-62
2022/06/02 01:02:16;;;;;;;4.53;3.88;;;10.20;88.70;;;;;;5049502;28;20028;-62
2022/06/02 01:04:43;;;;;;;9.23;4.28;;;10.20;88.90;;;;;;5053875;28;20500;-62
2022/06/02 01:07:17;;;;;;;4.15;3.72;;;10.20;89.20;;;;;;5040273;28;20389;-62
2022/06/02 01:10:13;;;;;;;4.32;3.90;;;10.10;89.30;;;;;;5052359;28;20508;-62
2022/06/02 01:12:52;;;;;;;3.53;3.20;;;10.10;89.60;;;;;;5037624;28;20393;-62
2022/06/02 01:15:34;;;;;;;4.07;3.50;;;10.00;89.80;;;;;;5038789;28;20203;-62
2022/06/02 01:18:05;;;;;;;4.30;3.60;;;10.00;90.00;;;;;;5043015;28;20373;-62
2022/06/02 01:20:44;;;;;;;4.97;3.40;;;9.90;90.10;;;;;;5039160;28;20053;-62
2022/06/02 01:24:02;;;;;;;4.85;3.28;;;9.90;90.10;;;;;;5049620;28;20098;-62
2022/06/02 01:27:11;;;;;;;3.78;3.38;;;9.90;90.10;;;;;;5010719;28;20030;-62
2022/06/02 01:30:10;;;;;;;4.10;3.70;;;9.80;90.20;;;;;;5034038;28;20037;-62
2022/06/02 01:33:05;;;;;;;4.00;3.60;;;9.70;90.30;;;;;;5043773;28;20033;-62
2022/06/02 01:35:36;;;;;;;4.55;4.00;;;9.70;90.40;;;;;;5041380;28;20025;-62
2022/06/02 01:38:30;;;;;;;5.15;4.05;;;9.70;90.60;;;;;;5040022;28;20772;-62
2022/06/02 01:41:13;;;;;;;5.45;4.85;;;9.70;90.60;;;;;;5046704;28;20119;-62
2022/06/02 01:43:59;;;;;;;5.35;4.38;;;9.60;90.60;;;;;;5042713;28;20023;-62
2022/06/02 01:46:42;;;;;;;5.25;4.70;;;9.60;90.70;;;;;;5038761;28;20037;-61
2022/06/02 01:49:45;;;;;;;6.22;4.72;;;9.50;90.80;;;;;;5045931;28;20099;-62
2022/06/02 01:52:43;;;;;;;5.68;4.55;;;9.60;90.90;;;;;;5038881;28;20106;-62
2022/06/02 01:55:34;;;;;;;5.72;4.97;;;9.50;91.00;;;;;;5044576;28;20064;-62
2022/06/02 01:58:10;;;;;;;5.82;5.13;;;9.40;91.00;;;;;;5036060;28;20436;-64
2022/06/02 02:00:36;;;;;;;5.70;5.13;;;9.40;91.10;;;;;;5040440;28;20115;-61
2022/06/02 02:03:22;;;;;;;6.93;6.05;;;9.40;91.10;;;;;;5037527;28;20044;-62
2022/06/02 02:06:03;;;;;;;6.45;5.43;;;9.40;91.20;;;;;;5054324;28;20392;-62
2022/06/02 02:09:12;;;;;;;12.10;5.50;;;9.30;91.30;;;;;;5033256;28;20094;-62
2022/06/02 02:11:47;;;;;;;;;;;9.30;91.60;;;;;;5019369;28;20226;-62
2022/06/02 02:14:28;;;;;;;5.10;4.28;;;9.20;91.40;;;;;;5051601;28;19990;-62
2022/06/02 02:17:05;;;;;;;5.13;4.63;;;9.20;91.90;;;;;;5044767;28;20025;-62
2022/06/02 02:19:40;;;;;;;6.30;5.38;;;9.20;91.70;;;;;;5031799;28;20087;-62
2022/06/02 02:22:24;;;;;;;5.78;5.03;;;9.10;91.80;;;;;;5033169;28;20413;-62
2022/06/02 02:25:01;;;;;;;6.70;5.57;;;9.10;91.70;;;;;;5031601;28;20010;-62
2022/06/02 02:28:02;;;;;;;6.10;5.50;;;9.10;91.80;;;;;;5046147;28;20021;-62
2022/06/02 02:30:46;;;;;;;7.22;6.50;;;9.10;91.80;;;;;;5031815;28;20036;-62
2022/06/02 02:33:45;;;;;;;7.25;6.10;;;9.10;91.70;;;;;;5033205;28;20040;-62
2022/06/02 02:36:17;;;;;;;8.07;6.10;;;9.10;91.70;;;;;;5033791;28;20401;-62
2022/06/02 02:39:04;;;;;;;7.60;6.65;;;9.10;91.70;;;;;;5033197;28;20033;-62
2022/06/02 02:41:50;;;;;;;7.97;7.15;;;9.10;91.60;;;;;;5039147;28;20030;-62
2022/06/02 02:44:34;;;;;;;8.13;6.55;;;9.10;91.70;;;;;;5031005;28;20030;-62
2022/06/02 02:47:06;;;;;;;7.78;6.88;;;9.10;91.70;;;;;;5051650;28;20033;-62
2022/06/02 02:49:34;;;;;;;8.52;6.50;;;9.10;91.80;;;;;;5051109;28;20021;-62
2022/06/02 02:52:21;;;;;;;6.75;5.63;;;9.00;91.80;;;;;;5052630;28;20115;-62
2022/06/02 02:54:57;;;;;;;5.05;4.55;;;8.90;91.90;;;;;;5035306;28;20022;-62
2022/06/02 02:57:56;;;;;;;4.85;4.05;;;8.90;92.00;;;;;;5032693;28;20528;-62
2022/06/02 03:00:31;;;;;;;3.88;3.47;;;8.80;92.10;;;;;;5038768;28;20029;-62
2022/06/02 03:03:12;;;;;;;4.45;3.78;;;8.70;92.30;;;;;;5043869;28;20097;-62
2022/06/02 03:06:09;;;;;;;4.38;3.35;;;8.70;92.40;;;;;;5039210;28;20049;-62
2022/06/02 03:09:06;;;;;;;3.35;3.00;;;8.70;92.40;;;;;;5035822;28;20036;-62
2022/06/02 03:11:52;;;;;;;3.85;2.83;;;8.60;92.50;;;;;;5036628;28;20025;-62
2022/06/02 03:14:21;;;;;;;3.70;3.28;;;8.60;92.60;;;;;;5051903;28;20429;-62
2022/06/02 03:16:53;;;;;;;9.18;3.20;;;8.50;92.70;;;;;;5034053;28;20489;-62
2022/06/02 03:19:47;;;;;;;3.10;2.00;;;8.40;92.80;;;;;;5046602;28;20032;-62
2022/06/02 03:22:27;;;;;;;2.67;2.30;;;8.40;92.90;;;;;;5033802;28;20045;-62
2022/06/02 03:25:02;;;;;;;2.92;2.45;;;8.40;93.00;;;;;;5031986;28;20052;-62
2022/06/02 03:27:58;;;;;;;3.60;3.13;;;8.40;93.10;;;;;;5041458;28;20032;-62
2022/06/02 03:30:26;;;;;;;4.35;3.50;;;8.40;93.10;;;;;;5032331;28;20532;-62
2022/06/02 03:33:04;;;;;;;4.30;3.88;;;8.40;93.10;;;;;;5031454;28;20391;-62
2022/06/02 03:35:51;;;;;;;5.10;4.43;;;8.40;93.20;;;;;;5044806;28;20116;-62
2022/06/02 03:38:45;;;;;;;4.80;4.13;;;8.40;93.20;;;;;;5046237;28;20027;-62
2022/06/02 03:41:19;;;;;;;5.07;4.00;;;8.40;93.20;;;;;;5032959;28;20579;-62
2022/06/02 03:44:08;;;;;;;4.03;3.40;;;8.40;93.30;;;;;;5032759;28;20037;-62
2022/06/02 03:46:42;;;;;;;3.78;3.42;;;8.30;93.40;;;;;;5032509;28;20045;-62
2022/06/02 03:49:42;;;;;;;4.88;2.92;;;8.30;93.50;;;;;;5045092;28;20476;-62
2022/06/02 03:52:13;;;;;;;3.58;2.40;;;8.30;93.60;;;;;;5030440;28;20415;-62
2022/06/02 03:54:56;;;;;;;22.30;2.63;;;8.20;93.70;;;;;;5031969;28;20442;-62
2022/06/02 03:57:24;;;;;;;8.27;5.07;;;8.20;93.70;;;;;;5047532;28;20082;-62
2022/06/02 04:00:09;;;;;;;8.02;7.05;;;8.20;93.90;;;;;;5039861;28;20021;-62
2022/06/02 04:02:41;;;;;;;9.98;8.98;;;8.10;94.20;;;;;;5049694;28;20021;-62
2022/06/02 04:05:29;;;;;;;12.13;10.27;;;8.00;94.70;;;;;;5050972;28;20099;-62
2022/06/02 04:08:30;;;;;;;10.07;8.60;;;8.00;95.10;;;;;;5044496;28;20413;-62
2022/06/02 04:11:14;;;;;;;10.18;8.38;;;8.00;95.20;;;;;;5042278;28;20021;-62
2022/06/02 04:14:01;;;;;;;7.88;7.07;;;8.00;95.20;;;;;;5043535;28;20033;-62
2022/06/02 04:16:45;;;;;;;9.02;8.02;;;8.20;95.10;;;;;;5037353;28;20029;-62
2022/06/02 04:22:38;;;;;;;8.48;6.55;;;8.30;95.00;;;;;;5055660;28;20040;-62
2022/06/02 04:25:19;;;;;;;7.20;5.75;;;8.30;94.80;;;;;;5035234;28;20049;-62
2022/06/02 04:28:09;;;;;;;6.05;5.45;;;8.40;94.80;;;;;;5034677;28;20101;-62
2022/06/02 04:30:52;;;;;;;6.90;5.85;;;8.40;94.80;;;;;;5034673;28;20033;-62
2022/06/02 04:33:38;;;;;;;7.68;5.80;;;8.50;94.70;;;;;;5033808;28;20393;-62
2022/06/02 04:36:18;;;;;;;7.38;6.50;;;8.50;94.60;;;;;;5043067;28;20028;-62
2022/06/02 04:38:51;;;;;;;7.75;6.93;;;8.50;94.60;;;;;;5054462;28;20029;-62
2022/06/02 04:41:26;;;;;;;8.98;7.43;;;8.60;94.60;;;;;;5054566;28;20025;-62
2022/06/02 04:44:16;;;;;;;10.20;8.40;;;8.60;94.60;;;;;;5035925;28;20075;-62
2022/06/02 04:47:00;;;;;;;;;;;8.70;94.60;;;;;;5035452;28;20025;-62
2022/06/02 04:49:36;;;;;;;8.52;7.00;;;8.70;94.60;;;;;;5035062;28;20404;-62
2022/06/02 04:52:21;;;;;;;9.13;8.05;;;8.70;94.70;;;;;;5040384;28;20520;-62
2022/06/02 04:54:59;;;;;;;11.77;9.10;;;8.70;94.70;;;;;;5039136;28;20032;-62
2022/06/02 04:57:51;;;;;;;9.65;8.65;;;8.80;94.80;;;;;;5035331;28;20109;-62
2022/06/02 05:00:42;;;;;;;11.32;9.20;;;8.90;94.70;;;;;;5054227;28;20074;-62
2022/06/02 05:03:31;;;;;;;10.20;9.10;;;8.90;94.80;;;;;;5039685;28;20021;-62
2022/06/02 05:06:25;;;;;;;11.82;9.80;;;8.90;94.80;;;;;;5033757;28;20022;-62
2022/06/02 05:09:16;;;;;;;11.90;10.05;;;9.00;94.90;;;;;;5048223;28;20032;-62
2022/06/02 05:11:59;;;;;;;15.55;12.18;;;9.00;95.00;;;;;;5038894;28;20044;-62
2022/06/02 05:14:39;;;;;;;15.50;13.25;;;9.00;95.20;;;;;;5031792;28;20063;-62
2022/06/02 05:17:38;;;;;;;14.00;12.40;;;9.10;95.40;;;;;;5032996;28;20109;-62
2022/06/02 05:20:10;;;;;;;12.02;10.50;;;9.10;95.50;;;;;;5036574;28;20445;-61
2022/06/02 05:22:35;;;;;;;10.57;9.07;;;9.20;95.60;;;;;;5034567;28;20021;-62
2022/06/02 05:25:46;;;;;;;11.48;10.27;;;9.20;95.60;;;;;;5032765;28;20369;-61
2022/06/02 05:29:05;;;;;;;10.65;9.55;;;9.30;95.60;;;;;;5039039;28;20029;-62
2022/06/02 05:31:58;;;;;;;10.23;8.40;;;9.30;95.70;;;;;;5032887;28;20057;-62
2022/06/02 05:34:49;;;;;;;12.02;10.30;;;9.30;95.80;;;;;;5045086;28;21196;-62
2022/06/02 05:37:36;;;;;;;11.50;10.30;;;9.40;95.90;;;;;;5047564;28;20096;-62
2022/06/02 05:40:32;;;;;;;13.00;11.30;;;9.50;96.00;;;;;;5050928;28;20036;-62
2022/06/02 05:43:26;;;;;;;12.65;11.10;;;9.60;96.10;;;;;;5050601;28;20100;-62
2022/06/02 05:46:12;;;;;;;23.23;14.57;;;9.70;96.20;;;;;;5047954;28;20013;-62
2022/06/02 05:49:01;;;;;;;21.42;18.83;;;9.70;96.40;;;;;;5045843;28;20415;-62
2022/06/02 05:51:46;;;;;;;24.05;20.65;;;9.80;96.70;;;;;;5045637;28;20380;-62
2022/06/02 05:54:21;;;;;;;21.15;18.33;;;9.90;97.20;;;;;;5050168;28;20028;-62
2022/06/02 05:56:55;;;;;;;25.13;20.95;;;10.00;97.50;;;;;;5049605;28;20021;-62
2022/06/02 05:59:42;;;;;;;23.95;19.63;;;10.00;97.90;;;;;;5046039;28;20025;-62
2022/06/02 06:02:19;;;;;;;18.40;15.73;;;10.10;98.20;;;;;;5049688;28;20138;-62
2022/06/02 06:05:16;;;;;;;15.10;13.45;;;10.20;98.30;;;;;;5036450;28;20028;-64
2022/06/02 06:08:15;;;;;;;15.40;12.02;;;10.20;98.30;;;;;;5045866;28;20067;-62
2022/06/02 06:11:13;;;;;;;12.00;10.43;;;10.30;98.40;;;;;;5050078;28;20017;-62
2022/06/02 06:14:02;;;;;;;12.10;10.00;;;10.40;98.40;;;;;;5047566;28;20028;-62
2022/06/02 06:16:39;;;;;;;12.82;11.25;;;10.40;98.50;;;;;;5043398;28;20421;-62
2022/06/02 06:19:31;;;;;;;12.60;9.88;;;10.50;98.60;;;;;;5032572;28;20120;-62
2022/06/02 06:22:15;;;;;;;12.60;10.00;;;10.60;98.60;;;;;;5043213;28;20021;-62
2022/06/02 06:25:09;;;;;;;12.13;10.77;;;10.70;98.60;;;;;;5047206;28;20017;-62
2022/06/02 06:28:01;;;;;;;12.32;10.27;;;10.80;98.70;;;;;;5046685;28;20025;-62
2022/06/02 06:30:35;;;;;;;16.02;14.27;;;10.80;98.70;;;;;;5050507;28;20111;-62
2022/06/02 06:33:20;;;;;;;14.57;12.85;;;10.90;98.90;;;;;;5049979;28;20483;-62
2022/06/02 06:36:03;;;;;;;18.05;14.48;;;11.00;98.90;;;;;;5045281;28;20029;-62
2022/06/02 06:39:06;;;;;;;17.23;13.48;;;11.10;99.20;;;;;;5044613;28;20020;-62
2022/06/02 06:41:47;;;;;;;15.15;12.77;;;11.20;99.20;;;;;;5044973;28;20028;-62
2022/06/02 06:44:26;;;;;;;13.65;11.85;;;11.30;99.60;;;;;;5037815;28;20041;-62
2022/06/02 06:47:06;;;;;;;15.20;13.60;;;11.40;99.40;;;;;;5049127;28;20099;-62
2022/06/02 06:49:52;;;;;;;17.73;13.82;;;11.50;99.60;;;;;;5046005;28;20025;-62
2022/06/02 06:52:45;;;;;;;15.40;13.68;;;11.60;99.70;;;;;;5044772;28;20052;-62
2022/06/02 06:55:36;;;;;;;15.23;13.60;;;11.70;99.70;;;;;;5032761;28;20025;-62
2022/06/02 06:58:14;;;;;;;12.55;10.77;;;11.80;99.80;;;;;;5044867;28;20542;-62
2022/06/02 07:00:47;;;;;;;11.38;10.18;;;11.90;99.80;;;;;;5033219;28;20029;-62
2022/06/02 07:03:23;;;;;;;10.82;9.73;;;12.00;99.80;;;;;;5052091;28;20025;-62
2022/06/02 07:05:52;;;;;;;13.18;11.73;;;12.10;99.80;;;;;;5047264;28;20110;-62
2022/06/02 07:08:32;;;;;;;14.80;11.38;;;12.20;99.90;;;;;;5043625;28;20150;-62
2022/06/02 07:14:06;;;;;;;10.65;9.00;;;12.30;99.90;;;;;;5039152;28;19970;-62
2022/06/02 07:16:45;;;;;;;8.00;7.20;;;12.40;99.90;;;;;;5040864;28;20109;-62
2022/06/02 07:19:27;;;;;;;7.82;6.97;;;12.60;99.80;;;;;;5037548;28;20104;-63
2022/06/02 07:22:12;;;;;;;12.18;9.60;;;12.80;99.70;;;;;;5035912;28;20028;-63
2022/06/02 07:24:59;;;;;;;14.45;12.82;;;12.90;99.60;;;;;;5033009;28;20029;-62
2022/06/02 07:27:40;;;;;;;12.90;10.70;;;13.10;99.70;;;;;;5038064;28;20030;-62
2022/06/02 07:30:23;;;;;;;9.52;8.60;;;13.20;99.50;;;;;;5044632;28;20029;-62
2022/06/02 07:33:09;;;;;;;7.78;7.07;;;13.30;99.40;;;;;;5031705;28;20094;-62
2022/06/02 07:36:03;;;;;;;6.90;6.20;;;13.40;99.10;;;;;;5033129;28;20108;-62
2022/06/02 07:38:42;;;;;;;6.65;5.82;;;13.40;98.90;;;;;;5035972;28;20025;-62
2022/06/02 07:41:27;;;;;;;4.95;4.32;;;13.50;99.00;;;;;;5035790;28;20477;-62
2022/06/02 07:44:12;;;;;;;6.72;4.97;;;13.60;98.40;;;;;;5041479;28;20067;-62
2022/06/02 07:47:06;;;;;;;4.68;3.95;;;13.80;98.00;;;;;;5041300;28;20428;-62
2022/06/02 07:49:49;;;;;;;5.07;3.63;;;14.00;97.70;;;;;;5041906;28;20017;-62
2022/06/02 07:52:30;;;;;;;4.35;3.63;;;14.20;97.20;;;;;;5035499;28;20536;-62
2022/06/02 07:55:26;;;;;;;5.00;3.33;;;14.40;96.90;;;;;;5035521;28;20034;-62
2022/06/02 07:58:21;;;;;;;4.80;4.20;;;14.60;96.30;;;;;;5050780;28;20048;-62
2022/06/02 08:01:16;;;;;;;4.32;3.58;;;14.80;95.70;;;;;;5035461;28;20287;-62
2022/06/02 08:03:54;;;;;;;5.95;3.92;;;14.90;94.90;;;;;;5035031;28;20052;-63
2022/06/02 08:06:35;;;;;;;4.95;4.45;;;15.10;94.00;;;;;;5035474;28;20022;-62
2022/06/02 08:09:19;;;;;;;5.32;4.82;;;15.20;93.10;;;;;;5035853;28;20117;-62
2022/06/02 08:12:03;;;;;;;4.78;4.03;;;15.30;91.20;;;;;;5039510;28;20017;-62
2022/06/02 08:14:56;;;;;;;4.03;3.50;;;15.30;90.10;;;;;;5040322;28;20029;-62
2022/06/02 08:17:36;;;;;;;2.88;2.60;;;15.40;90.30;;;;;;5037499;28;20067;-62
2022/06/02 08:20:04;;;;;;;;;;;15.50;90.50;;;;;;5035689;28;20022;-62
2022/06/02 08:22:42;;;;;;;4.10;3.03;;;15.60;90.70;;;;;;5036308;28;19988;-63
2022/06/02 08:25:09;;;;;;;4.28;3.85;;;15.70;90.50;;;;;;5049852;28;20025;-63
2022/06/02 08:27:43;;;;;;;4.53;4.00;;;15.80;90.40;;;;;;5050183;28;20021;-63
2022/06/02 08:30:09;;;;;;;7.15;5.80;;;15.90;90.00;;;;;;5049599;28;20029;-62
2022/06/02 08:32:43;;;;;;;5.32;4.70;;;15.90;87.50;;;;;;5044689;28;20436;-63
2022/06/02 08:35:44;;;;;;;6.13;5.32;;;15.90;87.20;;;;;;5040362;28;20022;-63
2022/06/02 08:38:15;;;;;;;6.05;5.45;;;16.00;85.80;;;;;;5047442;28;20083;-63
2022/06/02 08:41:30;;;;;;;4.75;4.10;;;16.00;85.40;;;;;;5037171;28;20025;-62
2022/06/02 08:44:24;;;;;;;4.00;3.55;;;16.20;85.80;;;;;;5044672;28;20025;-62
2022/06/02 08:47:00;;;;;;;3.97;3.55;;;16.30;85.60;;;;;;5050801;28;20021;-62
2022/06/02 08:49:51;;;;;;;3.55;2.70;;;16.40;85.10;;;;;;5053261;28;20473;-62
2022/06/02 08:52:31;;;;;;;4.13;3.15;;;16.50;84.90;;;;;;5049345;28;20103;-63
2022/06/02 08:55:40;;;;;;;5.60;4.10;;;16.60;84.50;;;;;;5049290;28;20021;-63
2022/06/02 08:58:34;;;;;;;2.75;2.55;;;16.70;83.40;;;;;;5045466;28;20508;-63
2022/06/02 09:01:21;;;;;;;5.20;2.92;;;16.80;83.10;;;;;;5034505;28;20116;-62
2022/06/02 09:04:05;;;;;;;2.50;2.10;;;17.00;83.00;;;;;;5047391;28;20393;-62
2022/06/02 09:06:55;;;;;;;2.38;2.13;;;17.00;82.70;;;;;;5037377;28;20453;-62
2022/06/02 09:10:03;;;;;;;1.98;1.45;;;17.10;82.60;;;;;;5042704;28;20384;-62
2022/06/02 09:12:38;;;;;;;2.95;2.03;;;17.10;82.00;;;;;;5045555;28;20021;-62
2022/06/02 09:15:28;;;;;;;1.95;1.65;;;17.10;81.90;;;;;;5052311;28;20043;-63
2022/06/02 09:17:56;;;;;;;;;;;17.20;81.70;;;;;;5037828;28;20080;-63
2022/06/02 09:20:28;;;;;;;1.70;1.17;;;17.10;82.10;;;;;;5033741;28;19916;-63
2022/06/02 09:23:09;;;;;;;1.73;1.40;;;17.10;81.80;;;;;;5034066;28;20029;-63
2022/06/02 09:25:47;;;;;;;2.53;2.33;;;17.20;81.30;;;;;;5033613;28;20663;-62
2022/06/02 09:28:28;;;;;;;3.38;2.65;;;17.30;80.00;;;;;;5033859;28;20044;-62
2022/06/02 09:31:03;;;;;;;3.60;2.20;;;17.30;77.80;;;;;;5033866;28;20543;-62
2022/06/02 09:33:44;;;;;;;3.10;2.60;;;17.30;77.40;;;;;;5032868;28;20033;-62
2022/06/02 09:36:30;;;;;;;3.80;2.50;;;17.20;75.80;;;;;;5046292;28;20485;-63
2022/06/02 09:39:20;;;;;;;2.17;1.80;;;17.30;76.40;;;;;;5033416;28;20108;-62
2022/06/02 09:42:17;;;;;;;1.92;1.48;;;17.40;76.50;;;;;;5034600;28;20094;-63
2022/06/02 09:44:42;;;;;;;2.85;2.38;;;17.50;76.20;;;;;;5044548;28;20021;-63
2022/06/02 09:47:27;;;;;;;2.35;1.67;;;17.50;75.10;;;;;;5034609;28;20131;-63
2022/06/02 09:50:11;;;;;;;3.83;1.90;;;17.70;75.20;;;;;;5034394;28;20032;-63
2022/06/02 09:52:53;;;;;;;1.98;1.67;;;17.80;75.20;;;;;;5033354;28;20096;-62
2022/06/02 09:55:39;;;;;;;1.77;1.35;;;18.00;74.70;;;;;;5032635;28;20385;-63
2022/06/02 09:58:27;;;;;;;3.42;3.08;;;18.10;74.00;;;;;;5031674;28;20448;-63
2022/06/02 10:00:55;;;;;;;2.90;2.20;;;18.20;71.70;;;;;;5035073;28;20459;-63
2022/06/02 10:03:45;;;;;;;1.70;1.27;;;18.40;72.10;;;;;;5042693;28;20048;-62
2022/06/02 10:06:48;;;;;;;1.98;1.42;;;18.60;71.90;;;;;;5032794;28;20018;-62
2022/06/02 10:09:17;;;;;;;1.90;1.45;;;18.70;71.40;;;;;;5034132;28;20481;-63
2022/06/02 10:15:22;;;;;;;2.05;1.33;;;19.00;70.70;;;;;;5034902;28;20120;-63
2022/06/02 10:18:24;;;;;;;2.50;1.38;;;19.10;70.40;;;;;;5048256;28;20016;-63
2022/06/02 10:21:10;;;;;;;2.92;1.48;;;19.30;70.00;;;;;;5051635;28;20025;-62
2022/06/02 10:24:18;;;;;;;3.78;1.45;;;19.50;69.50;;;;;;5040237;28;20104;-63
2022/06/02 10:26:49;;;;;;;1.42;1.33;;;19.70;68.50;;;;;;5052646;28;20482;-63
2022/06/02 10:29:55;;;;;;;2.55;1.10;;;19.80;68.00;;;;;;5035538;28;20022;-63
2022/06/02 10:32:42;;;;;;;1.58;1.17;;;20.00;67.50;;;;;;5031365;28;20028;-63
2022/06/02 10:35:45;;;;;;;2.47;1.70;;;20.20;66.30;;;;;;5037545;28;20021;-62
2022/06/02 10:38:39;;;;;;;1.95;1.23;;;20.30;64.80;;;;;;5045849;28;20159;-63
2022/06/02 10:41:24;;;;;;;2.35;1.60;;;20.40;63.00;;;;;;5033244;28;20025;-62
2022/06/02 10:44:07;;;;;;;1.83;1.20;;;20.30;61.00;;;;;;5032917;28;20021;-63
2022/06/02 10:47:10;;;;;;;1.50;1.20;;;20.30;60.90;;;;;;5038882;28;20021;-62
2022/06/02 10:49:53;;;;;;;1.33;0.95;;;20.40;60.70;;;;;;5037910;28;20040;-63
2022/06/02 10:52:38;;;;;;;1.95;1.20;;;20.50;60.80;;;;;;5033354;28;20053;-63
2022/06/02 10:55:25;;;;;;;1.90;1.10;;;20.70;59.40;;;;;;5037277;28;20118;-63
2022/06/02 10:58:30;;;;;;;1.52;0.80;;;20.90;59.40;;;;;;5032941;28;20032;-63
2022/06/02 11:01:34;;;;;;;2.55;0.75;;;21.10;59.00;;;;;;5058627;28;20025;-63
2022/06/02 11:04:27;;;;;;;2.03;1.30;;;21.30;58.30;;;;;;5046844;28;20124;-63
2022/06/02 11:06:59;;;;;;;1.40;1.30;;;21.30;56.70;;;;;;5045645;28;20025;-63
2022/06/02 11:09:36;;;;;;;2.33;1.25;;;21.40;55.80;;;;;;5046507;28;20373;-62
2022/06/02 11:12:25;;;;;;;3.67;1.40;;;21.40;55.60;;;;;;5047023;28;20028;-63
2022/06/02 11:14:56;;;;;;;1.00;0.90;;;21.60;55.60;;;;;;5028303;28;20033;-63
2022/06/02 11:17:54;;;;;;;1.45;0.70;;;21.70;55.80;;;;;;5048275;28;20476;-63
2022/06/02 11:20:44;;;;;;;1.52;1.40;;;22.00;55.60;;;;;;5050504;28;20120;-63
2022/06/02 11:23:36;;;;;;;1.15;0.90;;;22.10;53.00;;;;;;5049710;28;20029;-63
2022/06/02 11:26:29;;;;;;;2.30;1.83;;;22.10;53.10;;;;;;5049391;28;20596;-63
2022/06/02 11:29:09;;;;;;;1.33;1.00;;;21.70;50.40;;;;;;5046947;28;20366;-63
2022/06/02 11:32:08;;;;;;;1.60;0.88;;;21.60;52.00;;;;;;5046237;28;20025;-63
2022/06/02 11:34:50;;;;;;;;;;;21.80;52.10;;;;;;5041800;28;20029;-63
2022/06/02 11:37:57;;;;;;;0.80;0.63;;;21.80;52.80;;;;;;5042561;28;19995;-62
2022/06/02 11:40:51;;;;;;;1.40;0.85;;;22.00;53.20;;;;;;5042146;28;20029;-63
2022/06/02 11:43:27;;;;;;;1.25;0.90;;;22.30;53.30;;;;;;5043190;28;20025;-63
2022/06/02 11:46:14;;;;;;;1.77;0.90;;;22.40;53.20;;;;;;5045946;28;20086;-63
2022/06/02 11:48:50;;;;;;;1.55;1.00;;;22.60;53.30;;;;;;5042677;28;20027;-63
2022/06/02 11:51:15;;;;;;;1.30;0.70;;;22.70;53.60;;;;;;5048893;28;20057;-63
2022/06/02 11:53:57;;;;;;;3.75;0.98;;;22.70;52.80;;;;;;5045548;28;20531;-63
2022/06/02 11:56:26;;;;;;;1.48;0.82;;;22.90;52.40;;;;;;5049519;28;20369;-63
2022/06/02 11:59:00;;;;;;;1.80;0.70;;;23.00;50.50;;;;;;5049883;28;20389;-63
2022/06/02 12:02:14;;;;;;;1.50;0.70;;;23.10;49.90;;;;;;5046916;28;20025;-63
2022/06/02 12:04:48;;;;;;;1.48;0.50;;;23.20;50.10;;;;;;5031383;28;20032;-63
2022/06/02 12:07:30;;;;;;;1.58;0.90;;;23.30;50.20;;;;;;5050060;28;20082;-63
2022/06/02 12:10:30;;;;;;;2.38;0.90;;;23.50;48.90;;;;;;5042099;28;20033;-63
2022/06/02 12:12:58;;;;;;;2.20;0.93;;;23.70;49.20;;;;;;5043756;28;20120;-63
2022/06/02 12:15:51;;;;;;;1.20;0.70;;;23.90;49.30;;;;;;5058008;28;20478;-63
2022/06/02 12:18:26;;;;;;;1.75;0.50;;;24.20;49.00;;;;;;5048928;28;20021;-63
2022/06/02 12:21:23;;;;;;;1.15;0.63;;;24.30;48.80;;;;;;5049104;28;20021;-63
2022/06/02 12:24:08;;;;;;;2.20;1.30;;;24.60;48.30;;;;;;5041568;28;20063;-62
2022/06/02 12:27:07;;;;;;;3.97;1.13;;;24.70;46.40;;;;;;5035343;28;20060;-63
2022/06/02 12:29:32;;;;;;;2.53;0.70;;;24.70;46.20;;;;;;5035606;28;20032;-63
2022/06/02 12:32:11;;;;;;;1.58;0.73;;;24.60;45.80;;;;;;5036761;28;20025;-63
2022/06/02 12:35:19;;;;;;;1.73;1.55;;;24.80;45.80;;;;;;5037222;28;20107;-63
2022/06/02 12:38:02;;;;;;;2.88;1.42;;;24.90;43.70;;;;;;5037159;28;20393;-63
2022/06/02 12:40:59;;;;;;;2.30;1.15;;;24.40;43.90;;;;;;5037535;28;20469;-63
2022/06/02 12:43:50;;;;;;;0.90;0.70;;;24.30;44.20;;;;;;5022502;28;20048;-62
2022/06/02 12:46:32;;;;;;;1.15;0.80;;;24.30;45.30;;;;;;5034881;28;20096;-63
2022/06/02 12:49:03;;;;;;;2.13;0.75;;;24.30;45.40;;;;;;5036883;28;20020;-63
2022/06/02 12:51:59;;;;;;;1.40;0.73;;;24.50;45.50;;;;;;5034589;28;20025;-63
2022/06/02 12:54:43;;;;;;;1.00;0.63;;;24.60;45.10;;;;;;5035961;28;20040;-63
2022/06/02 12:57:09;;;;;;;2.97;0.73;;;24.40;44.60;;;;;;5038763;28;20025;-63
2022/06/02 12:59:55;;;;;;;2.80;0.90;;;24.30;44.50;;;;;;5052102;28;20480;-63
2022/06/02 13:03:05;;;;;;;1.80;0.50;;;24.40;44.90;;;;;;5048424;28;20052;-63
2022/06/02 13:05:51;;;;;;;2.22;0.60;;;24.60;45.30;;;;;;5047287;28;20028;-63
2022/06/02 13:08:18;;;;;;;0.50;0.40;;;24.60;45.20;;;;;;5036539;28;20561;-63
2022/06/02 13:11:07;;;;;;;0.80;0.50;;;24.90;45.20;;;;;;5037312;28;20029;-63
2022/06/02 13:13:50;;;;;;;1.20;0.60;;;25.10;44.70;;;;;;5033257;28;20037;-63
2022/06/02 13:16:24;;;;;;;1.40;0.93;;;25.20;43.60;;;;;;5041031;28;20560;-63
2022/06/02 13:19:16;;;;;;;1.95;0.60;;;25.20;43.50;;;;;;5047625;28;20040;-63
2022/06/02 13:21:50;;;;;;;1.13;0.50;;;25.30;44.00;;;;;;5045340;28;20107;-63
2022/06/02 13:24:37;;;;;;;1.02;0.50;;;25.50;44.30;;;;;;5047848;28;20033;-64
2022/06/02 13:27:34;;;;;;;1.42;0.70;;;25.70;44.30;;;;;;5048407;28;20048;-64
2022/06/02 13:30:24;;;;;;;1.52;0.50;;;25.90;43.30;;;;;;5049216;28;20044;-63
2022/06/02 13:33:14;;;;;;;1.50;0.60;;;25.90;42.10;;;;;;5046711;28;20382;-64
2022/06/02 13:36:19;;;;;;;0.70;0.50;;;26.00;42.10;;;;;;5050423;28;20079;-63
2022/06/02 13:39:02;;;;;;;2.13;0.77;;;26.00;42.20;;;;;;5046808;28;20533;-64
2022/06/02 13:41:40;;;;;;;2.13;0.85;;;25.90;41.10;;;;;;5039736;28;20025;-63
2022/06/02 13:44:18;;;;;;;2.10;0.90;;;25.70;41.60;;;;;;5050854;28;20025;-63
2022/06/02 13:46:58;;;;;;;1.13;0.88;;;25.30;40.40;;;;;;5049526;28;20017;-63
2022/06/02 13:50:01;;;;;;;1.73;1.23;;;25.10;40.90;;;;;;5037817;28;20021;-63
2022/06/02 13:52:51;;;;;;;1.10;0.60;;;24.70;41.20;;;;;;5050269;28;20052;-63
2022/06/02 13:58:48;;;;;;;0.60;0.50;;;25.10;42.30;;;;;;5039523;28;20045;-63
2022/06/02 14:01:16;;;;;;;1.50;0.57;;;25.40;42.00;;;;;;5042792;28;20037;-63
2022/06/02 14:03:56;;;;;;;2.87;0.80;;;25.60;41.80;;;;;;5037707;28;20394;-64
2022/06/02 14:06:27;;;;;;;1.95;0.70;;;25.90;41.60;;;;;;5041184;28;20629;-63
2022/06/02 14:09:14;;;;;;;0.85;0.60;;;26.00;40.40;;;;;;5035713;28;20507;-63
2022/06/02 14:12:02;;;;;;;0.60;0.43;;;25.80;40.30;;;;;;5041996;28;20049;-64
2022/06/02 14:14:34;;;;;;;1.13;0.60;;;26.00;40.90;;;;;;5048231;28;20378;-63
2022/06/02 14:17:24;;;;;;;1.92;0.60;;;26.10;40.00;;;;;;5033115;28;20101;-64
2022/06/02 14:20:17;;;;;;;0.88;0.55;;;26.20;39.70;;;;;;5033074;28;20100;-63
2022/06/02 14:23:01;;;;;;;2.05;0.50;;;26.40;39.80;;;;;;5033312;28;20517;-63
2022/06/02 14:25:54;;;;;;;1.33;0.40;;;26.70;40.10;;;;;;5032633;28;20029;-64
2022/06/02 14:28:46;;;;;;;2.00;0.75;;;26.70;39.50;;;;;;5033509;28;20025;-63
2022/06/02 14:31:15;;;;;;;0.90;0.32;;;26.80;38.70;;;;;;5021812;28;20037;-63
2022/06/02 14:33:45;;;;;;;1.00;0.40;;;26.90;39.00;;;;;;5033266;28;20022;-63
2022/06/02 14:36:33;;;;;;;2.58;0.73;;;26.90;37.50;;;;;;5043646;28;20025;-63
2022/06/02 14:39:38;;;;;;;1.67;0.40;;;26.50;36.40;;;;;;5033218;28;20021;-63